createdAt,value
2018-03-14T00:00:16.563Z,0.00
2018-03-14T00:01:16.524Z,0.00
2018-03-14T00:02:16.516Z,0.00
2018-03-14T00:03:16.516Z,0.00
2018-03-14T00:04:16.502Z,0.00
2018-03-14T00:05:16.497Z,0.00
2018-03-14T00:06:16.490Z,0.00
2018-03-14T00:07:16.491Z,0.00
2018-03-14T00:08:16.487Z,0.00
2018-03-14T00:09:16.460Z,0.00
2018-03-14T00:10:16.465Z,0.00
2018-03-14T00:11:16.454Z,0.00
2018-03-14T00:12:16.434Z,0.00
2018-03-14T00:13:16.441Z,0.00
2018-03-14T00:14:16.415Z,0.00
2018-03-14T00:15:16.408Z,0.00
2018-03-14T00:16:16.396Z,0.00
2018-03-14T00:17:16.394Z,0.00
2018-03-14T00:18:16.397Z,0.00
2018-03-14T00:19:16.382Z,0.00
2018-03-14T00:20:16.361Z,0.00
2018-03-14T00:21:16.361Z,0.00
2018-03-14T00:22:16.389Z,0.00
2018-03-14T00:23:16.378Z,0.00
2018-03-14T00:24:16.342Z,0.00
2018-03-14T00:25:16.329Z,0.00
2018-03-14T00:26:16.361Z,0.00
2018-03-14T00:27:16.331Z,0.00
2018-03-14T00:28:16.298Z,0.00
2018-03-14T00:29:16.364Z,0.00
2018-03-14T00:30:16.281Z,0.00
2018-03-14T00:31:16.283Z,0.00
2018-03-14T00:32:16.261Z,0.00
2018-03-14T00:33:16.253Z,0.00
2018-03-14T00:34:16.278Z,0.00
2018-03-14T00:35:16.248Z,0.00
2018-03-14T00:36:16.273Z,0.00
2018-03-14T00:37:16.268Z,0.00
2018-03-14T00:38:16.249Z,0.00
2018-03-14T00:39:16.231Z,0.00
2018-03-14T00:40:16.234Z,0.00
2018-03-14T00:41:16.246Z,0.00
2018-03-14T00:42:16.178Z,0.00
2018-03-14T00:43:16.161Z,0.00
2018-03-14T00:44:16.157Z,0.00
2018-03-14T00:45:16.146Z,0.00
2018-03-14T00:46:16.136Z,0.00
2018-03-14T00:47:16.143Z,0.00
2018-03-14T00:48:16.133Z,0.00
2018-03-14T00:49:16.161Z,0.00
2018-03-14T00:50:16.205Z,0.00
2018-03-14T00:51:16.140Z,0.00
2018-03-14T00:52:16.122Z,0.00
2018-03-14T00:53:16.131Z,0.00
2018-03-14T00:54:16.127Z,0.00
2018-03-14T00:55:16.062Z,0.00
2018-03-14T00:56:16.068Z,0.00
2018-03-14T00:57:16.051Z,0.00
2018-03-14T00:58:16.034Z,0.00
2018-03-14T00:59:16.026Z,0.00
2018-03-14T01:00:16.014Z,0.00
2018-03-14T01:01:16.011Z,0.00
2018-03-14T01:02:16.000Z,0.00
2018-03-14T01:03:15.992Z,0.00
2018-03-14T01:04:15.985Z,0.00
2018-03-14T01:05:15.974Z,0.00
2018-03-14T01:06:15.974Z,0.00
2018-03-14T01:07:15.959Z,0.00
2018-03-14T01:08:15.951Z,0.00
2018-03-14T01:09:15.942Z,0.00
2018-03-14T01:10:15.935Z,0.00
2018-03-14T01:11:15.936Z,0.00
2018-03-14T01:12:15.916Z,0.00
2018-03-14T01:13:15.923Z,0.00
2018-03-14T01:14:15.896Z,0.00
2018-03-14T01:15:15.888Z,0.00
2018-03-14T01:16:15.881Z,0.00
2018-03-14T01:17:15.876Z,0.00
2018-03-14T01:18:15.870Z,0.00
2018-03-14T01:19:15.870Z,0.00
2018-03-14T01:20:15.848Z,0.00
2018-03-14T01:21:15.857Z,0.00
2018-03-14T01:22:15.832Z,0.00
2018-03-14T01:23:15.832Z,0.00
2018-03-14T01:24:15.804Z,0.00
2018-03-14T01:25:15.804Z,0.00
2018-03-14T01:26:15.793Z,0.00
2018-03-14T01:27:15.790Z,0.00
2018-03-14T01:28:15.775Z,0.00
2018-03-14T01:29:15.769Z,0.00
2018-03-14T01:30:15.770Z,0.00
2018-03-14T01:31:15.754Z,0.00
2018-03-14T01:32:15.741Z,0.00
2018-03-14T01:33:15.756Z,0.00
2018-03-14T01:34:15.728Z,0.00
2018-03-14T02:05:33.396Z,0.00
2018-03-14T02:06:33.359Z,0.00
2018-03-14T02:08:26.312Z,0.00
2018-03-14T02:09:26.284Z,0.00
2018-03-14T02:11:19.183Z,0.00
2018-03-14T02:12:19.145Z,0.00
2018-03-14T02:14:12.090Z,0.00
2018-03-14T02:15:12.074Z,0.00
2018-03-14T02:17:04.968Z,0.00
2018-03-14T02:18:04.947Z,0.00
2018-03-14T02:19:57.849Z,0.00
2018-03-14T02:20:57.836Z,0.00
2018-03-14T02:22:50.776Z,0.00
2018-03-14T02:23:50.742Z,0.00
2018-03-14T02:25:43.639Z,0.00
2018-03-14T02:26:43.616Z,0.00
2018-03-14T02:28:36.583Z,0.00
2018-03-14T02:29:36.566Z,0.00
2018-03-14T02:31:29.530Z,0.00
2018-03-14T02:32:29.506Z,0.00
2018-03-14T02:33:29.499Z,0.00
2018-03-14T02:34:29.494Z,0.00
2018-03-14T02:35:29.488Z,0.00
2018-03-14T02:36:29.476Z,0.00
2018-03-14T02:37:29.468Z,0.00
2018-03-14T02:38:29.457Z,0.00
2018-03-14T02:39:29.448Z,0.00
2018-03-14T02:40:29.443Z,0.00
2018-03-14T02:41:29.438Z,0.00
2018-03-14T02:42:29.424Z,0.00
2018-03-14T02:43:29.413Z,0.00
2018-03-14T02:44:29.406Z,0.00
2018-03-14T02:45:29.398Z,0.00
2018-03-14T02:46:29.386Z,0.00
2018-03-14T02:47:29.388Z,0.00
2018-03-14T02:48:29.375Z,0.00
2018-03-14T02:49:29.363Z,0.00
2018-03-14T02:50:29.357Z,0.00
2018-03-14T02:51:29.347Z,0.00
2018-03-14T02:52:29.326Z,0.00
2018-03-14T02:53:29.323Z,0.00
2018-03-14T02:54:29.318Z,0.00
2018-03-14T02:55:29.315Z,0.00
2018-03-14T02:56:29.300Z,0.00
2018-03-14T02:57:29.294Z,0.00
2018-03-14T02:58:29.290Z,0.00
2018-03-14T02:59:29.284Z,0.00
2018-03-14T03:00:29.274Z,0.00
2018-03-14T03:01:29.260Z,0.00
2018-03-14T03:02:29.251Z,0.00
2018-03-14T03:03:29.246Z,0.00
2018-03-14T03:04:29.235Z,0.00
2018-03-14T03:05:29.226Z,0.00
2018-03-14T03:06:29.214Z,0.00
2018-03-14T03:07:29.208Z,0.00
2018-03-14T03:08:29.200Z,0.00
2018-03-14T03:09:29.197Z,0.00
2018-03-14T03:10:29.186Z,0.00
2018-03-14T03:11:29.181Z,0.00
2018-03-14T03:12:29.169Z,0.00
2018-03-14T03:13:29.160Z,0.00
2018-03-14T03:14:29.152Z,0.00
2018-03-14T03:15:29.150Z,0.00
2018-03-14T03:16:29.128Z,0.00
2018-03-14T03:17:29.129Z,0.00
2018-03-14T03:18:29.119Z,0.00
2018-03-14T03:19:29.116Z,0.00
2018-03-14T03:20:29.100Z,0.00
2018-03-14T03:21:29.091Z,0.00
2018-03-14T03:22:29.086Z,0.00
2018-03-14T03:23:29.077Z,0.00
2018-03-14T03:24:29.065Z,0.00
2018-03-14T03:25:29.063Z,0.00
2018-03-14T03:26:29.050Z,0.00
2018-03-14T03:27:29.042Z,0.00
2018-03-14T03:28:29.031Z,0.00
2018-03-14T03:29:29.026Z,0.00
2018-03-14T03:30:29.021Z,0.00
2018-03-14T03:31:29.012Z,0.00
2018-03-14T03:32:29.000Z,0.00
2018-03-14T03:33:28.990Z,0.00
2018-03-14T03:34:28.981Z,0.00
2018-03-14T03:35:28.975Z,0.00
2018-03-14T03:36:28.966Z,0.00
2018-03-14T03:37:28.958Z,0.00
2018-03-14T03:38:28.962Z,0.00
2018-03-14T03:39:28.939Z,0.00
2018-03-14T03:40:28.920Z,0.00
2018-03-14T03:41:28.923Z,0.00
2018-03-14T03:42:28.924Z,0.00
2018-03-14T03:43:28.901Z,0.00
2018-03-14T03:44:28.901Z,0.00
2018-03-14T03:45:28.894Z,0.00
2018-03-14T03:46:28.880Z,0.00
2018-03-14T03:47:28.872Z,0.00
2018-03-14T03:48:28.860Z,0.00
2018-03-14T03:49:28.864Z,0.00
2018-03-14T03:50:28.844Z,0.00
2018-03-14T03:51:28.836Z,0.00
2018-03-14T03:52:28.828Z,0.00
2018-03-14T03:53:28.817Z,0.00
2018-03-14T03:54:28.819Z,0.00
2018-03-14T03:55:28.799Z,0.00
2018-03-14T03:56:28.794Z,0.00
2018-03-14T03:57:28.783Z,0.00
2018-03-14T03:58:28.772Z,0.00
2018-03-14T03:59:28.768Z,0.00
2018-03-14T04:00:28.810Z,0.00
2018-03-14T04:01:28.751Z,0.00
2018-03-14T04:02:28.730Z,0.00
2018-03-14T04:03:28.726Z,0.00
2018-03-14T04:04:28.724Z,0.00
2018-03-14T04:05:28.712Z,0.00
2018-03-14T04:06:28.708Z,0.00
2018-03-14T04:07:28.696Z,0.00
2018-03-14T04:08:28.688Z,0.00
2018-03-14T04:09:28.754Z,0.00
2018-03-14T04:10:28.670Z,0.00
2018-03-14T04:11:28.662Z,0.00
2018-03-14T04:12:28.656Z,0.00
2018-03-14T04:13:28.650Z,0.00
2018-03-14T04:14:28.635Z,0.00
2018-03-14T04:15:28.625Z,0.00
2018-03-14T04:16:28.620Z,0.00
2018-03-14T04:17:28.612Z,0.00
2018-03-14T04:18:28.601Z,0.00
2018-03-14T04:19:28.592Z,0.00
2018-03-14T04:20:28.586Z,0.00
2018-03-14T04:21:28.576Z,0.00
2018-03-14T04:22:28.568Z,0.00
2018-03-14T04:23:28.554Z,0.00
2018-03-14T04:24:28.548Z,0.00
2018-03-14T04:25:28.536Z,0.00
2018-03-14T04:26:28.530Z,0.00
2018-03-14T04:27:28.524Z,0.00
2018-03-14T04:28:28.508Z,0.00
2018-03-14T04:29:28.502Z,0.00
2018-03-14T04:30:28.493Z,0.00
2018-03-14T04:31:28.532Z,0.00
2018-03-14T04:32:28.475Z,0.00
2018-03-14T04:33:28.468Z,0.00
2018-03-14T04:34:28.465Z,0.00
2018-03-14T04:35:28.453Z,0.00
2018-03-14T04:36:28.460Z,0.00
2018-03-14T04:37:28.436Z,0.00
2018-03-14T04:38:28.433Z,0.00
2018-03-14T04:39:28.418Z,0.00
2018-03-14T04:40:28.407Z,0.00
2018-03-14T04:41:28.397Z,0.00
2018-03-14T04:42:28.384Z,0.00
2018-03-14T04:43:28.384Z,0.00
2018-03-14T04:44:28.375Z,0.00
2018-03-14T04:45:28.365Z,0.00
2018-03-14T04:46:28.352Z,0.00
2018-03-14T04:47:28.345Z,0.00
2018-03-14T04:48:28.340Z,0.00
2018-03-14T04:50:28.320Z,0.00
2018-03-14T04:51:28.311Z,0.00
2018-03-14T04:52:28.299Z,0.00
2018-03-14T04:53:28.285Z,0.00
2018-03-14T04:54:28.284Z,0.00
2018-03-14T04:55:28.274Z,0.00
2018-03-14T04:56:28.272Z,0.00
2018-03-14T04:57:28.269Z,0.00
2018-03-14T04:58:28.248Z,0.00
2018-03-14T04:59:28.240Z,0.00
2018-03-14T05:00:28.243Z,0.00
2018-03-14T05:01:28.220Z,0.00
2018-03-14T05:02:28.217Z,0.00
2018-03-14T05:03:28.213Z,0.00
2018-03-14T05:04:28.194Z,0.00
2018-03-14T05:05:28.188Z,0.00
2018-03-14T05:06:28.172Z,0.00
2018-03-14T05:07:28.283Z,0.00
2018-03-14T05:08:28.159Z,0.00
2018-03-14T05:09:28.156Z,0.00
2018-03-14T05:10:28.172Z,0.00
2018-03-14T05:11:28.192Z,0.00
2018-03-14T05:12:28.142Z,0.00
2018-03-14T05:13:28.117Z,0.00
2018-03-14T05:14:28.105Z,0.00
2018-03-14T05:15:28.102Z,0.00
2018-03-14T05:16:28.087Z,0.00
2018-03-14T05:17:28.082Z,0.00
2018-03-14T05:18:28.071Z,0.00
2018-03-14T05:19:28.050Z,0.00
2018-03-14T05:20:28.081Z,0.00
2018-03-14T05:21:28.046Z,0.00
2018-03-14T05:22:28.034Z,0.00
2018-03-14T05:23:28.025Z,0.00
2018-03-14T05:24:28.015Z,0.00
2018-03-14T05:25:28.004Z,0.00
2018-03-14T05:26:27.998Z,0.00
2018-03-14T05:27:28.058Z,0.00
2018-03-14T05:28:27.986Z,0.00
2018-03-14T05:29:27.970Z,5.63
2018-03-14T05:30:28.001Z,5.63
2018-03-14T05:31:27.970Z,5.63
2018-03-14T05:32:27.984Z,5.63
2018-03-14T05:33:27.990Z,5.63
2018-03-14T05:34:27.990Z,11.25
2018-03-14T05:35:28.483Z,11.25
2018-03-14T05:36:27.911Z,11.25
2018-03-14T05:37:27.910Z,11.25
2018-03-14T05:38:27.922Z,11.25
2018-03-14T05:39:27.907Z,16.88
2018-03-14T05:40:27.929Z,16.88
2018-03-14T05:41:27.868Z,16.88
2018-03-14T05:42:27.877Z,22.50
2018-03-14T05:43:27.886Z,22.50
2018-03-14T05:44:27.851Z,22.50
2018-03-14T05:45:27.847Z,28.13
2018-03-14T05:46:27.863Z,28.13
2018-03-14T05:47:27.874Z,28.13
2018-03-14T05:48:27.816Z,33.75
2018-03-14T05:49:27.829Z,33.75
2018-03-14T05:50:27.782Z,33.75
2018-03-14T05:51:27.790Z,39.38
2018-03-14T05:52:27.764Z,39.38
2018-03-14T05:53:27.761Z,45.00
2018-03-14T05:54:27.765Z,45.00
2018-03-14T05:55:27.758Z,50.63
2018-03-14T05:56:27.769Z,50.63
2018-03-14T05:57:27.728Z,56.25
2018-03-14T05:58:27.735Z,61.88
2018-03-14T05:59:27.737Z,61.88
2018-03-14T06:00:27.689Z,67.50
2018-03-14T06:01:27.696Z,67.50
2018-03-14T06:02:27.703Z,73.13
2018-03-14T06:03:27.665Z,73.13
2018-03-14T06:04:27.676Z,73.13
2018-03-14T06:05:27.683Z,78.75
2018-03-14T06:06:27.660Z,78.75
2018-03-14T06:07:27.634Z,78.75
2018-03-14T06:08:27.647Z,84.38
2018-03-14T06:09:27.604Z,84.38
2018-03-14T06:10:27.612Z,84.38
2018-03-14T06:11:28.482Z,84.38
2018-03-14T06:12:27.626Z,90.00
2018-03-14T06:13:27.570Z,95.63
2018-03-14T06:14:27.582Z,95.63
2018-03-14T06:15:27.627Z,101.25
2018-03-14T06:16:27.567Z,101.25
2018-03-14T06:17:27.559Z,101.25
2018-03-14T06:18:27.532Z,106.88
2018-03-14T06:19:27.509Z,112.50
2018-03-14T06:20:27.513Z,118.13
2018-03-14T06:21:27.531Z,123.75
2018-03-14T06:22:27.485Z,123.75
2018-03-14T06:23:27.495Z,123.75
2018-03-14T06:24:27.480Z,123.75
2018-03-14T06:25:27.506Z,129.38
2018-03-14T06:26:27.453Z,129.38
2018-03-14T06:27:27.457Z,135.00
2018-03-14T06:28:27.424Z,135.00
2018-03-14T06:29:27.402Z,135.00
2018-03-14T06:30:27.400Z,140.63
2018-03-14T06:31:27.382Z,140.63
2018-03-14T06:32:27.374Z,146.25
2018-03-14T06:33:27.367Z,157.50
2018-03-14T06:34:27.356Z,168.75
2018-03-14T06:35:27.362Z,180.00
2018-03-14T06:36:27.336Z,180.00
2018-03-14T06:37:27.324Z,185.63
2018-03-14T06:38:27.322Z,185.63
2018-03-14T06:39:27.310Z,180.00
2018-03-14T06:40:27.298Z,174.38
2018-03-14T06:41:27.289Z,174.38
2018-03-14T06:42:27.317Z,174.38
2018-03-14T06:43:27.272Z,168.75
2018-03-14T06:44:27.264Z,174.38
2018-03-14T06:45:27.253Z,180.00
2018-03-14T06:46:27.246Z,185.63
2018-03-14T06:47:27.235Z,191.25
2018-03-14T06:48:27.225Z,202.50
2018-03-14T06:49:27.226Z,202.50
2018-03-14T06:50:27.213Z,213.75
2018-03-14T06:51:27.197Z,230.63
2018-03-14T06:52:27.186Z,258.75
2018-03-14T06:53:27.180Z,270.00
2018-03-14T06:54:27.176Z,511.88
2018-03-14T06:55:27.167Z,354.38
2018-03-14T06:56:27.151Z,450.00
2018-03-14T06:57:27.209Z,585.00
2018-03-14T06:58:27.136Z,596.25
2018-03-14T06:59:27.126Z,596.25
2018-03-14T07:00:27.158Z,590.63
2018-03-14T07:01:27.110Z,517.50
2018-03-14T07:02:27.103Z,618.75
2018-03-14T07:03:27.098Z,635.63
2018-03-14T07:04:27.088Z,646.88
2018-03-14T07:05:27.081Z,641.25
2018-03-14T07:06:27.080Z,641.25
2018-03-14T07:07:27.072Z,646.88
2018-03-14T07:08:27.065Z,646.88
2018-03-14T07:09:27.060Z,646.88
2018-03-14T07:10:27.056Z,613.13
2018-03-14T07:11:27.055Z,585.00
2018-03-14T07:12:27.049Z,393.75
2018-03-14T07:13:27.048Z,343.13
2018-03-14T07:14:27.041Z,573.75
2018-03-14T07:15:27.042Z,433.13
2018-03-14T07:16:27.037Z,613.13
2018-03-14T07:17:27.033Z,517.50
2018-03-14T07:18:27.031Z,478.13
2018-03-14T07:19:27.027Z,360.00
2018-03-14T07:20:27.023Z,354.38
2018-03-14T07:21:27.033Z,371.25
2018-03-14T07:22:27.019Z,388.13
2018-03-14T07:23:27.014Z,388.13
2018-03-14T07:24:27.012Z,450.00
2018-03-14T07:25:27.009Z,793.13
2018-03-14T07:26:27.008Z,658.13
2018-03-14T07:27:27.002Z,534.38
2018-03-14T07:28:27.001Z,495.00
2018-03-14T07:29:26.994Z,753.75
2018-03-14T07:30:26.998Z,781.88
2018-03-14T07:31:26.998Z,675.00
2018-03-14T07:32:26.988Z,770.63
2018-03-14T07:33:26.984Z,562.50
2018-03-14T07:34:26.991Z,556.88
2018-03-14T07:35:26.986Z,540.00
2018-03-14T07:36:27.036Z,540.00
2018-03-14T07:37:26.983Z,523.13
2018-03-14T07:38:27.009Z,500.63
2018-03-14T07:39:26.981Z,444.38
2018-03-14T07:40:26.975Z,444.38
2018-03-14T07:41:26.973Z,438.75
2018-03-14T07:42:26.968Z,455.63
2018-03-14T07:43:26.968Z,466.88
2018-03-14T07:44:26.963Z,495.00
2018-03-14T07:45:26.960Z,568.13
2018-03-14T07:46:26.957Z,888.75
2018-03-14T07:47:26.958Z,900.00
2018-03-14T07:48:26.955Z,860.63
2018-03-14T07:49:26.950Z,781.88
2018-03-14T07:50:26.950Z,652.50
2018-03-14T07:51:26.951Z,551.25
2018-03-14T07:52:26.951Z,461.25
2018-03-14T07:53:26.949Z,641.25
2018-03-14T07:54:26.950Z,495.00
2018-03-14T07:55:26.946Z,798.75
2018-03-14T07:56:26.948Z,545.63
2018-03-14T07:57:26.949Z,793.13
2018-03-14T07:58:26.961Z,765.00
2018-03-14T07:59:26.946Z,770.63
2018-03-14T08:00:26.951Z,759.38
2018-03-14T08:01:26.949Z,765.00
2018-03-14T08:02:26.967Z,770.63
2018-03-14T08:03:26.961Z,770.63
2018-03-14T08:04:26.955Z,770.63
2018-03-14T08:05:26.953Z,759.38
2018-03-14T08:06:26.964Z,765.00
2018-03-14T08:07:26.961Z,776.25
2018-03-14T08:08:26.969Z,781.88
2018-03-14T08:09:26.975Z,590.63
2018-03-14T08:10:26.979Z,770.63
2018-03-14T08:11:26.981Z,776.25
2018-03-14T08:12:26.985Z,787.50
2018-03-14T08:13:27.061Z,810.00
2018-03-14T08:14:27.045Z,832.50
2018-03-14T08:15:27.004Z,815.63
2018-03-14T08:16:27.031Z,793.13
2018-03-14T08:17:27.019Z,821.25
2018-03-14T08:18:27.024Z,894.38
2018-03-14T08:19:27.035Z,922.50
2018-03-14T08:20:27.041Z,714.38
2018-03-14T08:21:27.100Z,888.75
2018-03-14T08:22:27.056Z,911.25
2018-03-14T08:23:27.064Z,843.75
2018-03-14T08:24:27.067Z,579.38
2018-03-14T08:25:27.084Z,973.13
2018-03-14T08:26:27.085Z,618.75
2018-03-14T08:27:27.117Z,613.13
2018-03-14T08:28:27.142Z,933.75
2018-03-14T08:29:27.136Z,967.50
2018-03-14T08:30:27.145Z,1046.25
2018-03-14T08:31:27.175Z,1119.38
2018-03-14T08:32:27.125Z,1141.88
2018-03-14T08:33:27.134Z,1085.63
2018-03-14T08:34:27.146Z,1231.88
2018-03-14T08:35:27.150Z,1305.00
2018-03-14T08:36:27.161Z,1350.00
2018-03-14T08:37:27.167Z,1344.38
2018-03-14T08:38:27.175Z,1310.63
2018-03-14T08:39:27.185Z,1276.88
2018-03-14T08:40:27.192Z,1248.75
2018-03-14T08:41:27.221Z,1243.13
2018-03-14T08:42:27.236Z,1254.38
2018-03-14T08:43:27.228Z,1288.13
2018-03-14T08:44:27.232Z,1316.25
2018-03-14T08:45:27.244Z,1423.13
2018-03-14T08:46:27.253Z,1468.13
2018-03-14T08:47:27.271Z,1226.25
2018-03-14T08:48:27.276Z,1096.88
2018-03-14T08:49:27.283Z,1215.00
2018-03-14T08:50:27.334Z,1344.38
2018-03-14T08:51:27.304Z,1344.38
2018-03-14T08:52:27.317Z,1423.13
2018-03-14T08:53:27.331Z,1535.63
2018-03-14T08:54:27.326Z,1642.50
2018-03-14T08:55:27.346Z,1625.63
2018-03-14T08:56:27.376Z,1473.75
2018-03-14T08:57:27.437Z,1591.88
2018-03-14T08:58:27.377Z,1603.13
2018-03-14T08:59:27.462Z,1653.75
2018-03-14T09:00:27.454Z,1726.88
2018-03-14T09:01:27.410Z,1434.38
2018-03-14T09:02:27.423Z,1726.88
2018-03-14T09:03:27.466Z,1693.13
2018-03-14T09:04:27.444Z,1693.13
2018-03-14T09:05:27.450Z,1608.75
2018-03-14T09:06:27.473Z,1288.13
2018-03-14T09:07:27.502Z,1276.88
2018-03-14T09:08:27.492Z,1136.25
2018-03-14T09:09:27.507Z,1423.13
2018-03-14T09:10:27.521Z,1462.50
2018-03-14T09:11:27.530Z,1434.38
2018-03-14T09:12:27.542Z,1181.25
2018-03-14T09:13:27.550Z,1305.00
2018-03-14T09:14:27.562Z,1254.38
2018-03-14T09:15:27.574Z,1181.25
2018-03-14T09:16:27.576Z,1035.00
2018-03-14T09:17:27.591Z,1383.75
2018-03-14T09:18:27.614Z,973.13
2018-03-14T09:19:27.611Z,1068.75
2018-03-14T09:20:27.618Z,1558.13
2018-03-14T09:21:27.631Z,1580.63
2018-03-14T09:22:27.635Z,1676.25
2018-03-14T09:23:27.646Z,1541.25
2018-03-14T09:24:27.665Z,1507.50
2018-03-14T09:25:27.663Z,1378.13
2018-03-14T09:26:27.676Z,1456.88
2018-03-14T09:27:27.682Z,1473.75
2018-03-14T09:28:27.696Z,1383.75
2018-03-14T09:29:27.710Z,1237.50
2018-03-14T09:30:27.715Z,1102.50
2018-03-14T09:31:27.727Z,1006.88
2018-03-14T09:32:27.730Z,905.63
2018-03-14T09:33:27.743Z,883.13
2018-03-14T09:34:27.750Z,950.63
2018-03-14T09:35:27.758Z,922.50
2018-03-14T09:36:27.756Z,995.63
2018-03-14T09:37:27.772Z,1012.50
2018-03-14T09:38:27.781Z,1085.63
2018-03-14T09:39:27.783Z,1130.63
2018-03-14T09:40:27.801Z,1136.25
2018-03-14T09:41:27.800Z,1113.75
2018-03-14T09:42:27.806Z,1091.25
2018-03-14T09:43:27.809Z,1035.00
2018-03-14T09:44:27.817Z,1029.38
2018-03-14T09:45:27.822Z,1119.38
2018-03-14T09:46:27.826Z,1198.13
2018-03-14T09:47:27.833Z,1125.00
2018-03-14T09:48:27.833Z,1085.63
2018-03-14T09:49:27.841Z,911.25
2018-03-14T09:50:27.844Z,849.38
2018-03-14T09:51:27.851Z,1243.13
2018-03-14T09:52:27.844Z,1327.50
2018-03-14T09:53:27.854Z,1164.38
2018-03-14T09:54:27.861Z,1428.75
2018-03-14T09:55:27.869Z,1091.25
2018-03-14T09:56:27.875Z,1203.75
2018-03-14T09:57:27.892Z,1186.88
2018-03-14T09:58:27.880Z,1147.50
2018-03-14T09:59:27.881Z,1299.38
2018-03-14T10:00:27.906Z,1726.88
2018-03-14T10:01:27.896Z,1721.25
2018-03-14T10:02:27.901Z,1738.13
2018-03-14T10:03:27.916Z,1665.00
2018-03-14T10:04:27.918Z,1642.50
2018-03-14T10:05:27.926Z,1614.38
2018-03-14T10:06:27.938Z,1676.25
2018-03-14T10:07:27.947Z,1693.13
2018-03-14T10:08:27.951Z,1305.00
2018-03-14T10:09:28.001Z,1468.13
2018-03-14T10:10:28.026Z,1046.25
2018-03-14T10:11:27.987Z,787.50
2018-03-14T10:12:28.038Z,748.13
2018-03-14T10:13:28.008Z,1198.13
2018-03-14T10:14:28.019Z,832.50
2018-03-14T10:15:28.052Z,787.50
2018-03-14T10:16:28.042Z,1186.88
2018-03-14T10:17:28.089Z,1248.75
2018-03-14T10:18:28.079Z,753.75
2018-03-14T10:19:28.078Z,815.63
2018-03-14T10:20:28.100Z,832.50
2018-03-14T10:21:28.093Z,787.50
2018-03-14T10:22:28.102Z,708.75
2018-03-14T10:23:28.108Z,635.63
2018-03-14T10:24:28.115Z,652.50
2018-03-14T10:25:28.208Z,883.13
2018-03-14T10:26:28.134Z,1243.13
2018-03-14T10:27:28.135Z,1192.50
2018-03-14T10:28:28.149Z,1321.88
2018-03-14T10:29:28.154Z,1305.00
2018-03-14T10:30:28.157Z,1276.88
2018-03-14T10:31:28.170Z,973.13
2018-03-14T10:32:28.174Z,1018.13
2018-03-14T10:33:28.187Z,1468.13
2018-03-14T10:34:28.192Z,1591.88
2018-03-14T10:35:28.203Z,1248.75
2018-03-14T10:36:28.216Z,1102.50
2018-03-14T10:37:28.219Z,1057.50
2018-03-14T10:38:28.309Z,1068.75
2018-03-14T10:39:28.242Z,1383.75
2018-03-14T10:40:28.262Z,1591.88
2018-03-14T10:41:28.253Z,1665.00
2018-03-14T10:42:28.320Z,1620.00
2018-03-14T10:43:28.286Z,1164.38
2018-03-14T10:44:28.292Z,1243.13
2018-03-14T10:45:28.300Z,1186.88
2018-03-14T10:46:28.314Z,1192.50
2018-03-14T10:47:28.321Z,1378.13
2018-03-14T10:48:28.330Z,1451.25
2018-03-14T10:49:28.349Z,1648.13
2018-03-14T10:50:28.354Z,1715.63
2018-03-14T10:51:28.361Z,1698.75
2018-03-14T10:52:28.377Z,1518.75
2018-03-14T10:53:28.382Z,1293.75
2018-03-14T10:54:28.398Z,1507.50
2018-03-14T10:55:28.405Z,1366.88
2018-03-14T10:56:28.412Z,1248.75
2018-03-14T10:57:28.450Z,1237.50
2018-03-14T10:58:28.431Z,1282.50
2018-03-14T10:59:28.469Z,1288.13
2018-03-14T11:00:28.470Z,1260.00
2018-03-14T11:01:28.476Z,1237.50
2018-03-14T11:02:28.489Z,1231.88
2018-03-14T11:03:28.508Z,1243.13
2018-03-14T11:04:28.518Z,1299.38
2018-03-14T11:05:28.536Z,1282.50
2018-03-14T11:06:28.567Z,1243.13
2018-03-14T11:07:28.558Z,1186.88
2018-03-14T11:08:28.574Z,1158.75
2018-03-14T11:09:28.587Z,1125.00
2018-03-14T11:10:28.608Z,1080.00
2018-03-14T11:11:28.615Z,1046.25
2018-03-14T11:12:28.632Z,1057.50
2018-03-14T11:13:28.645Z,1096.88
2018-03-14T11:14:28.665Z,1130.63
2018-03-14T11:15:28.786Z,1175.63
2018-03-14T11:16:28.689Z,1186.88
2018-03-14T11:17:28.695Z,1147.50
2018-03-14T11:18:28.720Z,1102.50
2018-03-14T11:19:28.735Z,1068.75
2018-03-14T11:20:28.750Z,1029.38
2018-03-14T11:21:28.770Z,990.00
2018-03-14T11:22:28.780Z,961.88
2018-03-14T11:23:28.805Z,950.63
2018-03-14T11:24:28.807Z,961.88
2018-03-14T11:25:28.854Z,990.00
2018-03-14T11:26:28.834Z,978.75
2018-03-14T11:27:28.852Z,984.38
2018-03-14T11:28:28.865Z,995.63
2018-03-14T11:29:28.874Z,1006.88
2018-03-14T11:30:28.900Z,1001.25
2018-03-14T11:31:28.912Z,984.38
2018-03-14T11:32:28.928Z,922.50
2018-03-14T11:33:28.942Z,877.50
2018-03-14T11:34:28.958Z,838.13
2018-03-14T11:35:28.972Z,810.00
2018-03-14T11:36:28.987Z,793.13
2018-03-14T11:37:29.000Z,804.38
2018-03-14T11:38:29.015Z,821.25
2018-03-14T11:39:29.032Z,821.25
2018-03-14T11:40:29.046Z,821.25
2018-03-14T11:41:29.054Z,849.38
2018-03-14T11:42:29.077Z,871.88
2018-03-14T11:43:29.092Z,888.75
2018-03-14T11:44:29.122Z,945.00
2018-03-14T11:45:29.113Z,928.13
2018-03-14T11:46:29.126Z,900.00
2018-03-14T11:47:29.149Z,916.88
2018-03-14T11:48:29.186Z,945.00
2018-03-14T11:49:29.189Z,736.88
2018-03-14T11:50:29.199Z,928.13
2018-03-14T11:51:29.216Z,905.63
2018-03-14T11:52:29.225Z,950.63
2018-03-14T11:53:29.243Z,990.00
2018-03-14T11:54:29.246Z,933.75
2018-03-14T11:55:29.273Z,832.50
2018-03-14T11:56:29.287Z,793.13
2018-03-14T11:57:29.306Z,635.63
2018-03-14T11:58:29.309Z,444.38
2018-03-14T11:59:29.326Z,551.25
2018-03-14T12:00:29.369Z,815.63
2018-03-14T12:01:29.364Z,781.88
2018-03-14T12:02:29.376Z,753.75
2018-03-14T12:03:29.389Z,765.00
2018-03-14T12:04:29.391Z,781.88
2018-03-14T12:05:29.412Z,821.25
2018-03-14T12:06:29.426Z,866.25
2018-03-14T12:07:29.427Z,911.25
2018-03-14T12:08:29.453Z,928.13
2018-03-14T12:09:29.521Z,922.50
2018-03-14T12:10:29.479Z,883.13
2018-03-14T12:11:29.492Z,871.88
2018-03-14T12:12:29.509Z,860.63
2018-03-14T12:13:29.519Z,860.63
2018-03-14T12:14:29.521Z,821.25
2018-03-14T12:15:29.541Z,776.25
2018-03-14T12:16:29.557Z,759.38
2018-03-14T12:17:29.587Z,776.25
2018-03-14T12:18:29.598Z,810.00
2018-03-14T12:19:29.598Z,810.00
2018-03-14T12:20:29.613Z,821.25
2018-03-14T12:21:29.620Z,821.25
2018-03-14T12:22:29.651Z,793.13
2018-03-14T12:23:29.669Z,753.75
2018-03-14T12:24:29.651Z,725.63
2018-03-14T12:25:29.677Z,697.50
2018-03-14T12:26:29.686Z,686.25
2018-03-14T12:27:29.698Z,686.25
2018-03-14T12:28:29.742Z,669.38
2018-03-14T12:29:29.722Z,663.75
2018-03-14T12:30:29.737Z,641.25
2018-03-14T12:31:29.753Z,635.63
2018-03-14T12:32:29.774Z,618.75
2018-03-14T12:33:29.780Z,596.25
2018-03-14T12:34:29.788Z,523.13
2018-03-14T12:35:29.832Z,405.00
2018-03-14T12:36:29.812Z,371.25
2018-03-14T12:37:29.818Z,348.75
2018-03-14T12:38:29.878Z,337.50
2018-03-14T12:39:29.839Z,331.88
2018-03-14T12:40:29.840Z,337.50
2018-03-14T12:41:29.852Z,331.88
2018-03-14T12:42:29.859Z,337.50
2018-03-14T12:43:29.869Z,337.50
2018-03-14T12:44:29.870Z,343.13
2018-03-14T12:45:29.875Z,348.75
2018-03-14T12:46:29.884Z,354.38
2018-03-14T12:47:29.888Z,354.38
2018-03-14T12:48:29.886Z,348.75
2018-03-14T12:49:29.889Z,343.13
2018-03-14T12:50:29.992Z,337.50
2018-03-14T12:51:29.911Z,337.50
2018-03-14T12:52:29.916Z,343.13
2018-03-14T12:53:29.897Z,343.13
2018-03-14T12:54:29.901Z,354.38
2018-03-14T12:55:29.938Z,343.13
2018-03-14T12:56:29.905Z,337.50
2018-03-14T12:57:29.904Z,331.88
2018-03-14T12:58:29.906Z,331.88
2018-03-14T12:59:29.909Z,337.50
2018-03-14T13:00:29.917Z,337.50
2018-03-14T13:01:29.908Z,343.13
2018-03-14T13:02:29.901Z,354.38
2018-03-14T13:03:29.896Z,354.38
2018-03-14T13:04:29.898Z,348.75
2018-03-14T13:05:29.899Z,354.38
2018-03-14T13:06:29.898Z,354.38
2018-03-14T13:07:29.897Z,360.00
2018-03-14T13:08:29.900Z,365.63
2018-03-14T13:09:29.885Z,371.25
2018-03-14T13:10:29.898Z,376.88
2018-03-14T13:11:29.929Z,376.88
2018-03-14T13:12:29.894Z,388.13
2018-03-14T13:13:29.891Z,393.75
2018-03-14T13:14:29.895Z,405.00
2018-03-14T13:15:29.887Z,410.63
2018-03-14T13:16:29.886Z,410.63
2018-03-14T13:17:29.887Z,405.00
2018-03-14T13:18:29.887Z,399.38
2018-03-14T13:19:29.896Z,399.38
2018-03-14T13:20:29.886Z,393.75
2018-03-14T13:21:29.879Z,393.75
2018-03-14T13:22:29.876Z,393.75